createdAt,value
2023-07-29T00:00:22.924Z,99401.28
2023-07-29T00:02:50.432Z,99396.41
2023-07-29T00:05:17.774Z,99395.72
2023-07-29T00:07:46.074Z,99388.84
2023-07-29T00:10:13.520Z,99394.56
2023-07-29T00:12:43.856Z,99413.78
2023-07-29T00:15:11.429Z,99383.03
2023-07-29T00:17:39.459Z,99418.78
2023-07-29T00:20:12.825Z,99402.13
2023-07-29T00:22:42.615Z,99392.78
2023-07-29T00:25:09.917Z,99396.88
2023-07-29T00:27:43.553Z,99390.06
2023-07-29T00:30:14.217Z,99421.31
2023-07-29T00:32:44.582Z,99393.75
2023-07-29T00:35:14.520Z,99401.88
2023-07-29T00:37:43.902Z,99423.00
2023-07-29T00:40:26.256Z,99427.41
2023-07-29T00:42:54.377Z,99418.13
2023-07-29T00:45:21.904Z,99427.47
2023-07-29T00:47:49.384Z,99418.88
2023-07-29T00:50:19.578Z,99410.06
2023-07-29T00:52:47.773Z,99410.06
2023-07-29T00:55:15.115Z,99421.38
2023-07-29T00:57:59.996Z,99443.31
2023-07-29T01:00:31.443Z,99422.19
2023-07-29T01:02:58.805Z,99431.13
2023-07-29T01:05:34.337Z,99432.81
2023-07-29T01:08:13.558Z,99431.16
2023-07-29T01:11:08.108Z,99447.78
2023-07-29T01:13:47.443Z,99400.31
2023-07-29T01:16:25.371Z,99441.69
2023-07-29T01:18:57.238Z,99440.47
2023-07-29T01:21:28.697Z,99429.56
2023-07-29T01:24:04.697Z,99436.06
2023-07-29T01:26:35.594Z,99380.84
2023-07-29T01:29:07.157Z,99444.88
2023-07-29T01:31:44.849Z,99458.22
2023-07-29T01:34:26.847Z,99432.19
2023-07-29T01:36:56.122Z,99445.22
2023-07-29T01:39:25.509Z,99438.31
2023-07-29T01:41:54.828Z,99465.59
2023-07-29T01:44:22.534Z,99459.91
2023-07-29T01:46:54.976Z,99462.38
2023-07-29T01:49:28.292Z,99487.16
2023-07-29T01:51:55.914Z,99476.66
2023-07-29T01:54:28.484Z,99492.06
2023-07-29T01:56:55.696Z,99490.88
2023-07-29T01:59:25.870Z,99505.97
2023-07-29T02:01:53.460Z,99503.09
2023-07-29T02:04:20.765Z,99481.16
2023-07-29T02:06:50.450Z,99491.31
2023-07-29T02:09:17.859Z,99488.03
2023-07-29T02:11:45.092Z,99488.84
2023-07-29T02:14:12.439Z,99497.78
2023-07-29T02:16:43.033Z,99501.84
2023-07-29T02:19:30.184Z,99496.53
2023-07-29T02:21:57.384Z,99495.72
2023-07-29T02:24:25.135Z,99512.38
2023-07-29T02:26:55.576Z,99506.69
2023-07-29T02:29:24.683Z,99516.41
2023-07-29T02:31:55.109Z,99528.63
2023-07-29T02:34:36.828Z,99517.28
2023-07-29T02:37:08.844Z,99519.28
2023-07-29T02:39:38.936Z,99535.94
2023-07-29T02:42:09.923Z,99537.19
2023-07-29T02:44:39.526Z,99520.94
2023-07-29T02:47:09.470Z,99540.81
2023-07-29T02:49:39.687Z,99522.13
2023-07-29T02:52:19.026Z,99538.78
2023-07-29T02:54:48.780Z,99545.69
2023-07-29T02:57:23.269Z,99524.19
2023-07-29T02:59:52.443Z,99541.63
2023-07-29T03:02:19.694Z,99538.38
2023-07-29T03:04:49.831Z,99561.94
2023-07-29T03:07:17.869Z,99561.94
2023-07-29T03:09:46.675Z,99540.81
2023-07-29T03:12:18.260Z,99548.94
2023-07-29T03:14:51.793Z,99543.69
2023-07-29T03:17:26.571Z,99555.50
2023-07-29T03:19:53.726Z,99534.31
2023-07-29T03:22:23.664Z,99574.13
2023-07-29T03:24:50.907Z,99555.84
2023-07-29T03:27:18.327Z,99584.22
2023-07-29T03:29:46.305Z,99568.03
2023-07-29T03:32:13.708Z,99514.38
2023-07-29T03:34:41.796Z,99575.31
2023-07-29T03:37:09.633Z,99586.28
2023-07-29T03:39:36.931Z,99594.03
2023-07-29T03:42:04.914Z,99604.97
2023-07-29T03:44:33.072Z,99565.19
2023-07-29T03:47:00.781Z,99577.38
2023-07-29T03:49:28.435Z,99611.56
2023-07-29T03:51:55.808Z,99586.00
2023-07-29T03:54:23.207Z,99605.91
2023-07-29T03:56:50.369Z,99590.44
2023-07-29T03:59:18.696Z,99605.09
2023-07-29T04:01:46.669Z,99618.09
2023-07-29T04:04:14.579Z,99640.03
2023-07-29T04:06:42.562Z,99625.38
2023-07-29T04:09:10.454Z,99638.34
2023-07-29T04:11:38.586Z,99639.13
2023-07-29T04:14:06.450Z,99596.84
2023-07-29T04:16:33.710Z,99636.75
2023-07-29T04:19:01.429Z,99653.00
2023-07-29T04:21:29.361Z,99634.25
2023-07-29T04:24:00.701Z,99638.72
2023-07-29T04:26:27.896Z,99637.91
2023-07-29T04:28:55.247Z,99644.81
2023-07-29T04:31:23.361Z,99652.50
2023-07-29T04:33:51.966Z,99624.47
2023-07-29T04:36:19.785Z,99648.06
2023-07-29T04:38:47.125Z,99626.53
2023-07-29T04:41:15.629Z,99669.56
2023-07-29T04:43:42.998Z,99666.00
2023-07-29T04:46:10.305Z,99644.00
2023-07-29T04:48:37.944Z,99657.47
2023-07-29T04:51:05.159Z,99649.38
2023-07-29T04:53:32.447Z,99661.97
2023-07-29T04:55:59.841Z,99651.41
2023-07-29T04:58:28.028Z,99650.19
2023-07-29T05:00:55.537Z,99685.97
2023-07-29T05:03:23.309Z,99668.06
2023-07-29T05:05:50.495Z,99660.34
2023-07-29T05:08:19.416Z,99687.22
2023-07-29T05:10:51.281Z,99693.69
2023-07-29T05:13:20.283Z,99695.31
2023-07-29T05:15:52.345Z,99715.63
2023-07-29T05:18:20.615Z,99712.75
2023-07-29T05:20:48.832Z,99703.81
2023-07-29T05:23:16.117Z,99698.16
2023-07-29T05:25:43.670Z,99685.16
2023-07-29T05:28:11.014Z,99686.41
2023-07-29T05:30:41.408Z,99705.91
2023-07-29T05:33:09.987Z,99711.97
2023-07-29T05:35:39.000Z,99716.44
2023-07-29T05:38:09.523Z,99697.72
2023-07-29T05:40:36.758Z,99692.44
2023-07-29T05:43:04.465Z,99713.19
2023-07-29T05:45:32.449Z,99720.09
2023-07-29T05:47:59.735Z,99738.44
2023-07-29T05:50:27.034Z,99725.00
2023-07-29T05:52:56.845Z,99705.03
2023-07-29T05:55:24.110Z,99739.25
2023-07-29T05:57:51.412Z,99729.53
2023-07-29T06:00:19.162Z,99720.13
2023-07-29T06:02:46.780Z,99718.09
2023-07-29T06:05:17.524Z,99735.16
2023-07-29T06:07:46.307Z,99741.31
2023-07-29T06:10:18.834Z,99719.72
2023-07-29T06:12:49.945Z,99719.75
2023-07-29T06:15:17.392Z,99745.75
2023-07-29T06:17:44.597Z,99713.59
2023-07-29T06:20:12.875Z,99731.88
2023-07-29T06:22:40.212Z,99733.50
2023-07-29T06:25:07.740Z,99735.50
2023-07-29T06:27:36.120Z,99708.25
2023-07-29T06:30:03.667Z,99716.81
2023-07-29T06:32:31.547Z,99735.13
2023-07-29T06:34:58.688Z,99711.59
2023-07-29T06:37:28.848Z,99721.28
2023-07-29T06:39:56.068Z,99728.59
2023-07-29T06:42:23.562Z,99746.50
2023-07-29T06:44:50.949Z,99770.09
2023-07-29T06:47:18.233Z,99749.41
2023-07-29T06:49:47.184Z,99767.28
2023-07-29T06:52:14.530Z,99737.25
2023-07-29T06:54:42.491Z,99745.78
2023-07-29T06:57:09.747Z,99767.31
2023-07-29T06:59:37.063Z,99775.47
2023-07-29T07:02:04.891Z,99775.03
2023-07-29T07:04:32.283Z,99753.03
2023-07-29T07:06:59.892Z,99769.31
2023-07-29T07:09:27.081Z,99771.38
2023-07-29T07:11:58.443Z,99729.38
2023-07-29T07:14:25.817Z,99774.50
2023-07-29T07:16:53.053Z,99769.63
2023-07-29T07:19:20.559Z,99764.34
2023-07-29T07:21:47.740Z,99761.06
2023-07-29T07:24:14.936Z,99779.78
2023-07-29T07:26:42.075Z,99766.75
2023-07-29T07:29:09.245Z,99801.34
2023-07-29T07:31:37.651Z,99773.69
2023-07-29T07:34:05.414Z,99777.75
2023-07-29T07:36:35.760Z,99715.38
2023-07-29T07:39:03.196Z,99793.13
2023-07-29T07:41:30.309Z,99770.75
2023-07-29T07:43:58.175Z,99775.22
2023-07-29T07:46:25.458Z,99786.19
2023-07-29T07:48:52.731Z,99765.03
2023-07-29T07:51:19.920Z,99782.09
2023-07-29T07:53:47.429Z,99772.31
2023-07-29T07:56:14.964Z,99774.66
2023-07-29T07:58:42.567Z,99777.78
2023-07-29T08:01:10.575Z,99794.16
2023-07-29T08:03:37.888Z,99792.16
2023-07-29T08:06:08.408Z,99762.50
2023-07-29T08:08:38.377Z,99772.22
2023-07-29T08:11:05.561Z,99786.06
2023-07-29T08:13:33.559Z,99774.22
2023-07-29T08:16:00.813Z,99750.03
2023-07-29T08:18:28.014Z,99745.34
2023-07-29T08:21:00.340Z,99773.94
2023-07-29T08:23:27.801Z,99775.16
2023-07-29T08:25:57.611Z,99805.22
2023-07-29T08:28:25.718Z,99784.09
2023-07-29T08:30:53.079Z,99776.72
2023-07-29T08:33:20.362Z,99766.00
2023-07-29T08:35:47.743Z,99771.22
2023-07-29T08:38:15.207Z,99758.44
2023-07-29T08:40:58.645Z,99787.63
2023-07-29T08:43:42.273Z,99751.66
2023-07-29T08:46:10.436Z,99790.22
2023-07-29T08:48:45.149Z,99770.94
2023-07-29T08:51:13.606Z,99777.00
2023-07-29T08:53:41.011Z,99772.44
2023-07-29T08:56:09.323Z,99792.38
2023-07-29T08:58:37.744Z,99765.84
2023-07-29T09:01:05.124Z,99763.66
2023-07-29T09:03:32.480Z,99783.25
2023-07-29T09:06:00.258Z,99761.84
2023-07-29T09:08:31.145Z,99765.38
2023-07-29T09:11:00.790Z,99776.41
2023-07-29T09:13:28.195Z,99785.25
2023-07-29T09:15:57.530Z,99774.34
2023-07-29T09:18:28.048Z,99756.03
2023-07-29T09:20:57.865Z,99769.75
2023-07-29T09:23:27.680Z,99771.50
2023-07-29T09:26:03.238Z,99777.38
2023-07-29T09:28:36.183Z,99758.03
2023-07-29T09:31:04.551Z,99776.56
2023-07-29T09:33:39.020Z,99759.50
2023-07-29T09:36:15.455Z,99746.31
2023-07-29T09:38:42.823Z,99766.81
2023-07-29T09:41:15.499Z,99737.81
2023-07-29T09:43:43.222Z,99752.75
2023-07-29T09:46:10.489Z,99776.94
2023-07-29T09:48:38.898Z,99775.00
2023-07-29T09:51:14.270Z,99756.34
2023-07-29T09:53:47.548Z,99780.56
2023-07-29T09:56:16.779Z,99782.69
2023-07-29T09:58:47.378Z,99757.38
2023-07-29T10:01:15.831Z,99770.84
2023-07-29T10:03:45.488Z,99784.31
2023-07-29T10:06:15.989Z,99781.06
2023-07-29T10:08:44.394Z,99767.91
2023-07-29T10:11:12.704Z,99737.03
2023-07-29T10:13:40.294Z,99799.66
2023-07-29T10:16:07.970Z,99765.91
2023-07-29T10:18:35.855Z,99797.94
2023-07-29T10:21:04.466Z,99792.63
2023-07-29T10:23:43.270Z,99761.25
2023-07-29T10:26:12.343Z,99773.28
2023-07-29T10:28:42.770Z,99787.78
2023-07-29T10:31:10.470Z,99794.94
2023-07-29T10:33:38.941Z,99760.94
2023-07-29T10:36:07.083Z,99791.69
2023-07-29T10:38:34.502Z,99817.06
2023-07-29T10:41:02.125Z,99778.81
2023-07-29T10:43:39.865Z,99767.56
2023-07-29T10:46:18.958Z,99804.22
2023-07-29T10:48:57.944Z,99760.25
2023-07-29T10:51:38.960Z,99786.91
2023-07-29T10:54:18.240Z,99772.84
2023-07-29T10:56:50.747Z,99775.00
2023-07-29T10:59:18.403Z,99765.38
2023-07-29T11:01:57.727Z,99786.91
2023-07-29T11:04:27.671Z,99782.56
2023-07-29T11:07:09.951Z,99811.03
2023-07-29T11:09:56.781Z,99794.00
2023-07-29T11:12:49.011Z,99800.44
2023-07-29T11:15:19.433Z,99800.97
2023-07-29T11:17:55.644Z,99777.44
2023-07-29T11:20:25.578Z,99789.50
2023-07-29T11:22:55.474Z,99803.09
2023-07-29T11:25:24.710Z,99778.50
2023-07-29T11:27:56.982Z,99789.19
2023-07-29T11:30:35.117Z,99771.97
2023-07-29T11:33:02.728Z,99773.16
2023-07-29T11:35:29.956Z,99766.41
2023-07-29T11:38:00.132Z,99773.34
2023-07-29T11:40:27.337Z,99763.78
2023-07-29T11:42:55.619Z,99767.75
2023-07-29T11:45:32.491Z,99797.16
2023-07-29T11:48:08.125Z,99773.41
2023-07-29T11:50:40.882Z,99788.28
2023-07-29T11:53:10.958Z,99767.53
2023-07-29T11:55:38.343Z,99748.91
2023-07-29T11:58:06.201Z,99781.84
2023-07-29T12:00:34.210Z,99761.88
2023-07-29T12:03:01.768Z,99795.31
2023-07-29T12:05:29.399Z,99814.66
2023-07-29T12:07:56.779Z,99818.09
2023-07-29T12:10:24.348Z,99811.16
2023-07-29T12:12:52.714Z,99790.63
2023-07-29T12:15:30.755Z,99812.78
2023-07-29T12:17:59.353Z,99801.31
2023-07-29T12:20:28.502Z,99825.78
2023-07-29T12:22:57.830Z,99816.16
2023-07-29T12:25:25.788Z,99794.34
2023-07-29T12:27:53.154Z,99802.44
2023-07-29T12:30:24.199Z,99821.66
2023-07-29T12:32:52.180Z,99803.88
2023-07-29T12:35:19.614Z,99804.44
2023-07-29T12:37:47.006Z,99805.41
2023-07-29T12:40:25.246Z,99817.06
2023-07-29T12:42:53.253Z,99806.94
2023-07-29T12:45:20.939Z,99822.81
2023-07-29T12:47:48.186Z,99794.81
2023-07-29T12:50:15.476Z,99783.34
2023-07-29T12:52:42.808Z,99795.19
2023-07-29T12:55:14.242Z,99781.59
2023-07-29T12:57:44.008Z,99816.41
2023-07-29T13:00:12.088Z,99798.72
2023-07-29T13:02:39.489Z,99809.63
2023-07-29T13:05:07.963Z,99839.19
2023-07-29T13:07:35.963Z,99817.09
2023-07-29T13:10:03.133Z,99825.31
2023-07-29T13:12:30.902Z,99810.78
2023-07-29T13:14:58.110Z,99827.03
2023-07-29T13:17:26.011Z,99841.06
2023-07-29T13:19:55.822Z,99840.56
2023-07-29T13:22:23.222Z,99806.59
2023-07-29T13:24:50.676Z,99839.97
2023-07-29T13:27:19.148Z,99827.06
2023-07-29T13:29:50.157Z,99842.78
2023-07-29T13:32:17.467Z,99831.66
2023-07-29T13:34:49.759Z,99860.00
2023-07-29T13:37:16.952Z,99849.59
2023-07-29T13:39:47.434Z,99846.44
2023-07-29T13:42:20.519Z,99853.00
2023-07-29T13:44:49.948Z,99838.78
2023-07-29T13:47:17.250Z,99850.19
2023-07-29T13:49:44.503Z,99833.88
2023-07-29T13:52:12.869Z,99840.34
2023-07-29T13:54:40.869Z,99830.88
2023-07-29T13:57:08.585Z,99836.59
2023-07-29T13:59:37.696Z,99847.88
2023-07-29T14:02:08.185Z,99852.97
2023-07-29T14:04:37.685Z,99848.53
2023-07-29T14:07:16.791Z,99832.34
2023-07-29T14:09:44.435Z,99844.63
2023-07-29T14:12:16.976Z,99851.06
2023-07-29T14:14:44.411Z,99859.19
2023-07-29T14:17:11.882Z,99847.19
2023-07-29T14:19:39.553Z,99852.06
2023-07-29T14:22:07.619Z,99881.97
2023-07-29T14:24:34.915Z,99866.53
2023-07-29T14:27:02.069Z,99858.53
2023-07-29T14:29:29.461Z,99873.44
2023-07-29T14:31:57.721Z,99876.28
2023-07-29T14:34:26.192Z,99882.41
2023-07-29T14:36:53.495Z,99858.53
2023-07-29T14:39:20.835Z,99850.19
2023-07-29T14:41:50.357Z,99875.72
2023-07-29T14:44:20.965Z,99843.81
2023-07-29T14:46:52.203Z,99883.97
2023-07-29T14:49:23.492Z,99854.97
2023-07-29T14:52:17.322Z,99879.13
2023-07-29T14:54:47.753Z,99873.31
2023-07-29T14:57:17.342Z,99864.50
2023-07-29T14:59:45.440Z,99880.22
2023-07-29T15:02:12.774Z,99870.56
2023-07-29T15:04:46.693Z,99867.63
2023-07-29T15:07:15.794Z,99881.34
2023-07-29T15:09:43.200Z,99891.44
2023-07-29T15:12:10.573Z,99898.00
2023-07-29T15:14:38.181Z,99903.47
2023-07-29T15:17:05.934Z,99898.06
2023-07-29T15:19:33.355Z,99897.56
2023-07-29T15:22:01.159Z,99907.00
2023-07-29T15:24:31.933Z,99884.03
2023-07-29T15:27:01.683Z,99876.81
2023-07-29T15:29:28.928Z,99906.50
2023-07-29T15:31:57.092Z,99916.38
2023-07-29T15:34:26.685Z,99911.38
2023-07-29T15:36:54.304Z,99897.13
2023-07-29T15:39:21.411Z,99907.19
2023-07-29T15:41:48.585Z,99901.50
2023-07-29T15:44:16.328Z,99910.94
2023-07-29T15:46:44.965Z,99903.66
2023-07-29T15:49:12.640Z,99917.47
2023-07-29T15:51:39.916Z,99903.56
2023-07-29T15:54:07.498Z,99912.50
2023-07-29T15:56:38.305Z,99922.31
2023-07-29T15:59:05.980Z,99926.78
2023-07-29T16:01:33.458Z,99927.31
2023-07-29T16:04:01.267Z,99935.06
2023-07-29T16:06:29.488Z,99948.91
2023-07-29T16:08:57.160Z,99928.00
2023-07-29T16:11:24.706Z,99923.97
2023-07-29T16:13:51.865Z,99932.09
2023-07-29T16:16:19.237Z,99932.16
2023-07-29T16:18:47.469Z,99933.06
2023-07-29T16:21:14.756Z,99938.97
2023-07-29T16:23:42.503Z,99937.38
2023-07-29T16:26:09.686Z,99950.47
2023-07-29T16:28:36.965Z,99943.97
2023-07-29T16:31:04.616Z,99944.78
2023-07-29T16:33:31.944Z,99952.72
2023-07-29T16:35:59.343Z,99950.59
2023-07-29T16:38:29.500Z,99968.69
2023-07-29T16:41:10.784Z,99954.81
2023-07-29T16:43:44.448Z,99981.53
2023-07-29T16:46:13.077Z,99967.59
2023-07-29T16:48:40.357Z,99982.63
2023-07-29T16:51:09.575Z,99967.13
2023-07-29T16:53:36.828Z,99974.34
2023-07-29T16:56:04.070Z,99968.41
2023-07-29T16:58:31.275Z,99973.28
2023-07-29T17:00:58.464Z,99974.88
2023-07-29T17:03:26.246Z,99976.47
2023-07-29T17:05:56.708Z,99977.44
2023-07-29T17:08:23.818Z,99988.03
2023-07-29T17:10:51.073Z,99992.03
2023-07-29T17:13:18.990Z,99995.00
2023-07-29T17:15:46.191Z,99978.38
2023-07-29T17:18:15.994Z,99978.03
2023-07-29T17:20:46.983Z,99981.31
2023-07-29T17:23:21.515Z,99971.03
2023-07-29T17:25:58.396Z,99963.38
2023-07-29T17:28:25.734Z,99882.53
2023-07-29T17:30:59.781Z,99941.09
2023-07-29T17:33:46.024Z,99919.38
2023-07-29T17:36:21.371Z,99911.44
2023-07-29T17:38:50.684Z,99925.28
2023-07-29T17:41:19.325Z,99944.53
2023-07-29T17:43:54.510Z,99960.13
2023-07-29T17:46:56.532Z,99935.31
2023-07-29T17:49:30.704Z,99899.50
2023-07-29T17:52:08.294Z,99915.03
2023-07-29T17:54:41.223Z,99930.88
2023-07-29T17:57:09.297Z,99955.25
2023-07-29T17:59:44.559Z,99889.78
2023-07-29T18:02:18.157Z,99986.06
2023-07-29T18:04:50.710Z,99919.81
2023-07-29T18:07:21.228Z,99970.28
2023-07-29T18:09:48.638Z,99923.22
2023-07-29T18:12:26.971Z,99939.47
2023-07-29T18:14:54.493Z,99978.88
2023-07-29T18:17:22.603Z,99905.75
2023-07-29T18:19:58.473Z,99940.84
2023-07-29T18:22:36.740Z,100027.78
2023-07-29T18:25:08.628Z,99960.66
2023-07-29T18:27:36.700Z,99978.88
2023-07-29T18:30:07.329Z,99914.31
2023-07-29T18:32:41.125Z,99973.22
2023-07-29T18:35:21.354Z,99943.59
2023-07-29T18:37:57.032Z,99964.00
2023-07-29T18:40:24.547Z,99976.91
2023-07-29T18:46:15.504Z,99964.16
2023-07-29T18:48:50.264Z,99976.41
2023-07-29T18:51:26.401Z,99923.97
2023-07-29T18:54:16.828Z,99986.31
2023-07-29T18:57:10.119Z,99949.00
2023-07-29T18:59:42.278Z,99955.56
2023-07-29T19:03:03.106Z,99968.63
2023-07-29T19:05:34.482Z,99921.06
2023-07-29T19:08:03.134Z,100031.41
2023-07-29T19:10:34.135Z,99941.03
2023-07-29T19:13:01.575Z,100014.34
2023-07-29T19:15:43.581Z,100008.25
2023-07-29T19:18:16.651Z,100021.28
2023-07-29T19:20:56.838Z,100027.31
2023-07-29T19:23:24.980Z,99902.81
2023-07-29T19:25:58.226Z,99970.81
2023-07-29T19:28:29.311Z,99939.88
2023-07-29T19:31:04.182Z,99954.13
2023-07-29T19:33:53.430Z,100030.69
2023-07-29T19:36:39.812Z,99921.97
2023-07-29T19:39:23.731Z,99902.44
2023-07-29T19:42:01.924Z,99943.94
2023-07-29T19:44:29.846Z,100015.94
2023-07-29T19:46:57.578Z,100023.75
2023-07-29T19:49:27.971Z,100024.59
2023-07-29T19:52:04.980Z,99999.78
2023-07-29T19:54:39.726Z,99968.00
2023-07-29T19:57:08.426Z,100036.44
2023-07-29T19:59:47.867Z,99995.69
2023-07-29T20:02:16.693Z,100035.19
2023-07-29T20:04:50.184Z,100038.88
2023-07-29T20:07:18.036Z,100015.19
2023-07-29T20:09:45.411Z,100036.00
2023-07-29T20:12:15.372Z,100038.03
2023-07-29T20:14:42.753Z,100025.44
2023-07-29T20:17:15.977Z,100049.88
2023-07-29T20:19:43.388Z,100051.56
2023-07-29T20:22:12.829Z,100056.88
2023-07-29T20:24:41.621Z,100041.78
2023-07-29T20:27:09.387Z,100051.56
2023-07-29T20:29:37.243Z,100056.09
2023-07-29T20:32:05.905Z,100045.09
2023-07-29T20:34:35.705Z,100064.63
2023-07-29T20:37:03.516Z,100061.75
2023-07-29T20:39:30.836Z,100066.63
2023-07-29T20:41:58.031Z,100059.25
2023-07-29T20:44:29.196Z,100075.16
2023-07-29T20:46:56.583Z,100075.16
2023-07-29T20:49:24.467Z,100054.44
2023-07-29T20:51:51.756Z,100053.22
2023-07-29T20:54:23.214Z,100056.91
2023-07-29T20:56:59.082Z,100036.50
2023-07-29T20:59:28.546Z,100048.31
2023-07-29T21:01:57.089Z,100052.81
2023-07-29T21:04:25.050Z,100068.28
2023-07-29T21:07:38.007Z,100069.13
2023-07-29T21:10:06.747Z,100070.75
2023-07-29T21:12:35.210Z,100058.94
2023-07-29T21:15:08.071Z,100048.31
2023-07-29T21:17:55.182Z,100032.03
2023-07-29T21:20:33.467Z,100073.16
2023-07-29T21:23:00.637Z,100083.75
2023-07-29T21:25:34.976Z,100065.03
2023-07-29T21:28:03.839Z,100077.25
2023-07-29T21:30:51.226Z,100057.28
2023-07-29T21:33:22.371Z,99959.03
2023-07-29T21:35:53.255Z,99970.81
2023-07-29T21:38:29.796Z,99960.22
2023-07-29T21:41:01.860Z,100049.91
2023-07-29T21:43:31.906Z,99959.81
2023-07-29T21:46:03.026Z,99991.56
2023-07-29T21:48:30.628Z,100041.34
2023-07-29T21:50:58.096Z,100003.81
2023-07-29T21:53:25.354Z,100053.63
2023-07-29T21:55:53.216Z,100054.84
2023-07-29T21:58:20.682Z,100065.81
2023-07-29T22:00:54.728Z,100060.50
2023-07-29T22:03:22.062Z,100060.13
2023-07-29T22:05:49.421Z,100051.97
2023-07-29T22:08:18.182Z,100052.75
2023-07-29T22:10:45.467Z,100060.13
2023-07-29T22:13:12.909Z,100054.03
2023-07-29T22:15:42.553Z,100052.41
2023-07-29T22:18:09.715Z,100050.38
2023-07-29T22:20:37.081Z,100035.28
2023-07-29T22:23:10.727Z,100029.56
2023-07-29T22:25:38.031Z,100039.38
2023-07-29T22:28:08.743Z,100037.75
2023-07-29T22:30:38.229Z,100030.00
2023-07-29T22:33:05.561Z,100027.94
2023-07-29T22:35:35.870Z,100032.47
2023-07-29T22:38:05.674Z,100035.28
2023-07-29T22:40:32.937Z,100041.38
2023-07-29T22:43:00.103Z,100050.34
2023-07-29T22:45:27.718Z,100044.63
2023-07-29T22:47:55.548Z,100029.16
2023-07-29T22:50:23.284Z,100031.22
2023-07-29T22:52:50.850Z,100038.13
2023-07-29T22:55:18.052Z,100041.78
2023-07-29T22:57:45.251Z,100052.00
2023-07-29T23:00:14.573Z,100024.25
2023-07-29T23:02:43.567Z,100039.38
2023-07-29T23:05:11.121Z,100033.66
2023-07-29T23:07:40.427Z,100048.75
2023-07-29T23:10:09.171Z,100055.66
2023-07-29T23:12:36.864Z,100038.97
2023-07-29T23:15:04.517Z,100037.31
2023-07-29T23:17:32.108Z,100036.09
2023-07-29T23:19:59.314Z,100032.44
2023-07-29T23:22:26.601Z,100039.75
2023-07-29T23:24:55.001Z,100041.75
2023-07-29T23:27:22.736Z,100065.00
2023-07-29T23:29:50.230Z,100022.13
2023-07-29T23:32:17.734Z,100046.59
2023-07-29T23:34:45.061Z,100037.19
2023-07-29T23:37:13.230Z,100038.41
2023-07-29T23:39:45.536Z,100046.94
2023-07-29T23:42:13.580Z,100015.09
2023-07-29T23:44:40.888Z,100040.78
2023-07-29T23:47:08.072Z,100029.78
2023-07-29T23:49:35.363Z,100048.91
2023-07-29T23:52:03.968Z,100025.63
2023-07-29T23:54:31.185Z,100047.25
2023-07-29T23:56:58.291Z,100035.00
2023-07-29T23:59:28.935Z,100043.56
